Time;durP1;ratioP1;P1;durP2;ratioP2;P2;SDS_P1;SDS_P2;PMS_P1;PMS_P2;Temp;Humidity;BMP_temperature;BMP_pressure;BME280_temperature;BME280_humidity;BME280_pressure;Samples;Min_cycle;Max_cycle;Signal;HPM_P1;HPM_P2
2023/03/02 10:20:35;;;;;;;;;;;;;;;7.41;100.00;100397.44;5150298;27;1367;-69
2023/03/02 10:23:15;;;;;;;;;;;;;;;7.46;100.00;100395.16;5149090;27;1425;-67
2023/03/02 10:26:08;;;;;;;;;;;;;;;7.50;100.00;100385.03;5148972;27;1195;-67
2023/03/02 10:28:40;;;;;;;;;;;;;;;7.25;100.00;100383.81;5118464;27;1973;-68
2023/03/02 10:31:14;;;;;;;;;;;;;;;7.21;100.00;100378.25;5150226;27;850;-68
2023/03/02 10:33:41;;;;;;;;;;;;;;;7.24;100.00;100373.97;5150482;27;798;-68
2023/03/02 10:36:17;;;;;;;;;;;;;;;7.33;100.00;100369.03;5150674;27;767;-68
2023/03/02 10:38:44;;;;;;;;;;;;;;;7.36;100.00;100368.28;5150229;27;854;-68
2023/03/02 10:41:14;;;;;;;;;;;;;;;7.70;100.00;100365.69;5150114;27;878;-68
2023/03/02 10:43:44;;;;;;;;;;;;;;;7.82;100.00;100371.00;5149930;27;811;-67
2023/03/02 10:46:11;;;;;;;;;;;;;;;8.01;100.00;100364.59;5148644;27;1165;-68
2023/03/02 10:48:48;;;;;;;;;;;;;;;7.96;100.00;100367.69;5149972;27;1943;-68
2023/03/02 10:51:25;;;;;;;;;;;;;;;7.82;100.00;100361.94;5149774;27;906;-69
2023/03/02 10:54:02;;;;;;;;;;;;;;;7.82;100.00;100361.94;5149747;27;983;-68
2023/03/02 10:56:29;;;;;;;;;;;;;;;7.75;100.00;100355.19;5149694;27;831;-68
2023/03/02 10:59:01;;;;;;;;;;;;;;;7.62;100.00;100342.78;5149674;27;810;-69
2023/03/02 11:01:29;;;;;;;;;;;;;;;7.61;100.00;100343.16;5149675;27;878;-67
2023/03/02 11:03:56;;;;;;;;;;;;;;;7.68;100.00;100338.56;5149600;27;850;-67
2023/03/02 11:06:23;;;;;;;;;;;;;;;7.88;100.00;100341.22;5149513;27;878;-67
2023/03/02 11:09:05;;;;;;;;;;;;;;;7.71;100.00;100335.06;5149423;27;1913;-67
2023/03/02 11:11:32;;;;;;;;;;;;;;;7.79;100.00;100333.22;5149508;27;803;-68
2023/03/02 11:14:13;;;;;;;;;;;;;;;7.98;100.00;100332.31;5148038;27;1214;-67
2023/03/02 11:16:39;;;;;;;;;;;;;;;7.91;100.00;100332.19;5149387;27;858;-68
2023/03/02 11:19:14;;;;;;;;;;;;;;;8.02;100.00;100340.59;5148973;27;1195;-68
2023/03/02 11:21:44;;;;;;;;;;;;;;;7.95;100.00;100344.84;5134967;27;875;-68
2023/03/02 11:24:18;;;;;;;;;;;;;;;7.75;100.00;100335.91;5135497;27;870;-69
2023/03/02 11:26:48;;;;;;;;;;;;;;;7.50;100.00;100340.22;5135293;27;842;-68
2023/03/02 11:29:21;;;;;;;;;;;;;;;7.39;100.00;100351.06;5135286;27;1949;-68
2023/03/02 11:31:55;;;;;;;;;;;;;;;7.22;100.00;100349.59;5135473;27;807;-68
2023/03/02 11:34:32;;;;;;;;;;;;;;;7.03;100.00;100352.41;5135258;27;873;-67
2023/03/02 11:37:02;;;;;;;;;;;;;;;7.03;100.00;100361.44;5135109;27;881;-68
2023/03/02 11:39:34;;;;;;;;;;;;;;;6.79;100.00;100357.06;5134040;27;1304;-67
2023/03/02 11:42:01;;;;;;;;;;;;;;;6.62;100.00;100354.75;5135223;27;846;-67
2023/03/02 11:44:28;;;;;;;;;;;;;;;6.50;100.00;100361.19;5135108;27;913;-68
2023/03/02 11:46:59;;;;;;;;;;;;;;;6.53;100.00;100360.47;5135023;27;870;-67
2023/03/02 11:49:46;;;;;;;;;;;;;;;6.66;100.00;100355.63;5134848;27;1881;-66
2023/03/02 11:52:18;;;;;;;;;;;;;;;6.65;100.00;100354.03;5134773;27;1180;-68
2023/03/02 11:55:05;;;;;;;;;;;;;;;6.59;100.00;100363.72;5134835;27;806;-69
2023/03/02 11:57:39;;;;;;;;;;;;;;;6.73;100.00;100362.03;5134459;27;1058;-68
2023/03/02 12:00:13;;;;;;;;;;;;;;;6.78;100.00;100362.91;5134708;27;804;-68
2023/03/02 12:02:40;;;;;;;;;;;;;;;6.96;100.00;100355.81;5133397;27;1211;-67
2023/03/02 12:05:23;;;;;;;;;;;;;;;7.05;100.00;100363.81;5133367;27;1399;-67
2023/03/02 12:08:00;;;;;;;;;;;;;;;7.30;100.00;100367.03;5134756;27;1959;-68
2023/03/02 12:10:34;;;;;;;;;;;;;;;7.29;100.00;100363.44;5134553;27;791;-68
2023/03/02 12:13:14;;;;;;;;;;;;;;;7.09;100.00;100354.47;5133272;27;1478;-67
2023/03/02 12:15:47;;;;;;;;;;;;;;;7.03;100.00;100355.94;5134477;27;886;-68
2023/03/02 12:18:23;;;;;;;;;;;;;;;6.99;100.00;100351.53;5134180;27;1275;-67
2023/03/02 12:21:01;;;;;;;;;;;;;;;7.06;100.00;100355.22;5134348;27;811;-68
2023/03/02 12:23:27;;;;;;;;;;;;;;;6.97;100.00;100351.88;5134620;27;898;-68
2023/03/02 12:26:09;;;;;;;;;;;;;;;6.95;100.00;100344.00;5132842;27;1227;-68
2023/03/02 12:28:37;;;;;;;;;;;;;;;6.94;100.00;100344.38;5132794;27;1965;-67
2023/03/02 12:31:07;;;;;;;;;;;;;;;7.16;100.00;100340.84;5132412;27;1225;-67
2023/03/02 12:33:53;;;;;;;;;;;;;;;7.15;100.00;100335.72;5133487;27;798;-68
2023/03/02 12:36:23;;;;;;;;;;;;;;;7.10;100.00;100333.25;5133855;27;1137;-69
2023/03/02 12:39:03;;;;;;;;;;;;;;;7.32;100.00;100331.69;5133986;27;908;-69
2023/03/02 12:41:45;;;;;;;;;;;;;;;7.11;100.00;100345.88;5133935;27;846;-68
2023/03/02 12:44:21;;;;;;;;;;;;;;;6.93;100.00;100337.28;5133824;27;795;-68
2023/03/02 12:46:48;;;;;;;;;;;;;;;6.86;100.00;100326.97;5133814;27;818;-68
2023/03/02 12:49:28;;;;;;;;;;;;;;;7.03;100.00;100322.94;5133712;27;1885;-68
2023/03/02 12:51:59;;;;;;;;;;;;;;;7.14;100.00;100317.63;5133922;27;822;-66
2023/03/02 12:54:27;;;;;;;;;;;;;;;7.25;100.00;100313.09;5133823;27;819;-67
2023/03/02 12:57:05;;;;;;;;;;;;;;;7.35;100.00;100306.19;5133599;27;823;-67
2023/03/02 12:59:31;;;;;;;;;;;;;;;7.42;100.00;100313.78;5133894;27;897;-68
2023/03/02 13:02:11;;;;;;;;;;;;;;;7.40;100.00;100311.38;5133403;27;811;-68
2023/03/02 13:04:38;;;;;;;;;;;;;;;7.24;100.00;100308.78;5133501;27;898;-67
2023/03/02 13:07:05;;;;;;;;;;;;;;;7.35;100.00;100301.50;5133282;27;811;-69
2023/03/02 13:09:31;;;;;;;;;;;;;;;7.33;100.00;100298.31;5133244;27;1944;-69
2023/03/02 13:11:58;;;;;;;;;;;;;;;7.23;100.00;100293.44;5133400;27;889;-67
2023/03/02 13:14:25;;;;;;;;;;;;;;;7.09;100.00;100301.47;5133305;27;974;-67
2023/03/02 13:16:56;;;;;;;;;;;;;;;6.86;100.00;100298.69;5133199;27;880;-66
2023/03/02 13:19:23;;;;;;;;;;;;;;;6.79;100.00;100301.31;5132971;27;1212;-68
2023/03/02 13:21:50;;;;;;;;;;;;;;;7.03;100.00;100295.47;5133185;27;886;-68
2023/03/02 13:24:33;;;;;;;;;;;;;;;7.13;100.00;100283.84;5133014;27;799;-68
2023/03/02 13:27:06;;;;;;;;;;;;;;;7.15;100.00;100291.75;5133010;27;858;-66
2023/03/02 13:29:33;;;;;;;;;;;;;;;7.30;100.00;100281.78;5133017;27;1965;-68
2023/03/02 13:32:20;;;;;;;;;;;;;;;7.48;100.00;100282.81;5131572;27;1202;-69
2023/03/02 13:34:57;;;;;;;;;;;;;;;7.64;100.00;100279.13;5117350;27;1070;-67
2023/03/02 13:37:42;;;;;;;;;;;;;;;7.40;100.00;100283.88;5132842;27;823;-68
2023/03/02 13:40:30;;;;;;;;;;;;;;;7.35;100.00;100273.19;5131518;27;1177;-68
2023/03/02 13:42:56;;;;;;;;;;;;;;;7.22;100.00;100274.56;5132573;27;827;-67
2023/03/02 13:45:24;;;;;;;;;;;;;;;7.25;100.00;100274.59;5132760;27;878;-68
2023/03/02 13:47:51;;;;;;;;;;;;;;;7.36;100.00;100266.53;5132642;27;1935;-67
2023/03/02 13:50:26;;;;;;;;;;;;;;;7.28;100.00;100267.59;5132727;27;897;-67
2023/03/02 13:52:55;;;;;;;;;;;;;;;7.28;100.00;100267.59;5132816;27;866;-66
2023/03/02 13:55:22;;;;;;;;;;;;;;;7.25;100.00;100269.09;5132682;27;854;-68
2023/03/02 13:57:50;;;;;;;;;;;;;;;7.06;100.00;100270.00;5132621;27;822;-67
2023/03/02 14:00:37;;;;;;;;;;;;;;;6.91;100.00;100257.97;5132622;27;886;-67
2023/03/02 14:03:09;;;;;;;;;;;;;;;6.85;100.00;100256.69;5131058;27;1211;-68
2023/03/02 14:05:35;;;;;;;;;;;;;;;6.75;100.00;100254.53;5131129;27;1286;-68
2023/03/02 14:08:02;;;;;;;;;;;;;;;6.78;100.00;100247.50;5132416;27;1889;-69
2023/03/02 14:10:29;;;;;;;;;;;;;;;6.91;100.00;100238.75;5132494;27;888;-67
2023/03/02 14:12:58;;;;;;;;;;;;;;;7.01;100.00;100245.56;5131124;28;1320;-67
2023/03/02 14:15:25;;;;;;;;;;;;;;;7.08;100.00;100237.44;5132505;27;826;-68
2023/03/02 14:17:52;;;;;;;;;;;;;;;7.01;100.00;100233.78;5132358;27;880;-67
2023/03/02 14:20:19;;;;;;;;;;;;;;;7.03;100.00;100234.22;5132292;27;1226;-67
2023/03/02 14:22:46;;;;;;;;;;;;;;;6.98;100.00;100229.81;5132368;28;890;-68
2023/03/02 14:25:14;;;;;;;;;;;;;;;7.09;100.00;100230.78;5132419;27;1062;-66
2023/03/02 14:27:41;;;;;;;;;;;;;;;7.24;100.00;100222.75;5132311;27;779;-68
2023/03/02 14:30:16;;;;;;;;;;;;;;;7.25;100.00;100232.56;5132255;27;1965;-68
2023/03/02 14:32:43;;;;;;;;;;;;;;;7.25;100.00;100238.06;5132695;27;862;-67
2023/03/02 14:35:15;;;;;;;;;;;;;;;7.12;100.00;100235.53;5132155;27;830;-68
2023/03/02 14:37:46;;;;;;;;;;;;;;;7.03;100.00;100229.50;5132226;27;826;-66
2023/03/02 14:40:23;;;;;;;;;;;;;;;6.98;100.00;100226.25;5132097;27;806;-67
2023/03/02 14:42:52;;;;;;;;;;;;;;;6.88;100.00;100233.19;5132239;27;858;-67
2023/03/02 14:45:20;;;;;;;;;;;;;;;6.79;100.00;100236.16;5132968;27;870;-70
2023/03/02 14:47:46;;;;;;;;;;;;;;;6.69;100.00;100234.03;5132313;27;868;-67
2023/03/02 14:50:15;;;;;;;;;;;;;;;6.64;100.00;100226.09;5132508;27;906;-66
2023/03/02 14:52:46;;;;;;;;;;;;;;;6.61;100.00;100249.56;5132289;27;886;-68
2023/03/02 14:55:25;;;;;;;;;;;;;;;6.56;100.00;100241.63;5133115;27;898;-66
2023/03/02 14:57:53;;;;;;;;;;;;;;;6.58;100.00;100242.06;5134633;27;1413;-67
2023/03/02 15:00:19;;;;;;;;;;;;;;;6.57;100.00;100234.97;5135924;27;823;-66
2023/03/02 15:02:47;;;;;;;;;;;;;;;6.58;100.00;100244.03;5135810;27;807;-66
2023/03/02 15:05:13;;;;;;;;;;;;;;;6.54;100.00;100238.47;5135720;27;815;-68
2023/03/02 15:07:40;;;;;;;;;;;;;;;6.48;100.00;100229.72;5135680;27;795;-67
2023/03/02 15:10:08;;;;;;;;;;;;;;;6.46;100.00;100228.50;5135544;27;1943;-68
2023/03/02 15:12:34;;;;;;;;;;;;;;;6.43;100.00;100221.78;5134431;27;1280;-68
2023/03/02 15:15:01;;;;;;;;;;;;;;;6.38;100.00;100226.78;5135628;27;807;-67
2023/03/02 15:17:28;;;;;;;;;;;;;;;6.36;100.00;100227.16;5134205;27;1174;-67
2023/03/02 15:19:54;;;;;;;;;;;;;;;6.31;100.00;100224.69;5133882;27;1440;-67
2023/03/02 15:22:21;;;;;;;;;;;;;;;6.31;100.00;100222.72;5135551;27;826;-66
2023/03/02 15:24:48;;;;;;;;;;;;;;;6.31;100.00;100225.47;5135324;27;803;-66
2023/03/02 15:27:16;;;;;;;;;;;;;;;6.29;100.00;100219.59;5135393;27;902;-66
2023/03/02 15:29:46;;;;;;;;;;;;;;;6.28;100.00;100223.47;5133880;27;1913;-67
2023/03/02 15:32:12;;;;;;;;;;;;;;;6.27;100.00;100226.56;5135348;27;814;-68
2023/03/02 15:34:40;;;;;;;;;;;;;;;6.24;100.00;100227.31;5133805;27;1221;-68
2023/03/02 15:37:07;;;;;;;;;;;;;;;6.21;100.00;100228.84;5135845;27;764;-67
2023/03/02 15:39:33;;;;;;;;;;;;;;;6.20;100.00;100229.97;5133872;27;1233;-67
2023/03/02 15:42:01;;;;;;;;;;;;;;;6.18;100.00;100226.81;5135707;27;839;-67
2023/03/02 15:44:28;;;;;;;;;;;;;;;6.17;100.00;100230.72;5135688;27;783;-66
2023/03/02 15:46:57;;;;;;;;;;;;;;;6.15;100.00;100238.53;5135067;27;882;-69
2023/03/02 15:49:26;;;;;;;;;;;;;;;6.12;100.00;100242.78;5135171;27;1897;-67
2023/03/02 15:51:56;;;;;;;;;;;;;;;6.10;100.00;100244.28;5134917;27;839;-68
2023/03/02 15:54:25;;;;;;;;;;;;;;;6.08;100.00;100236.44;5134869;27;909;-66
2023/03/02 15:56:52;;;;;;;;;;;;;;;6.08;100.00;100244.66;5135157;27;807;-69
2023/03/02 15:59:20;;;;;;;;;;;;;;;6.07;100.00;100236.78;5134850;27;889;-68
2023/03/02 16:01:46;;;;;;;;;;;;;;;6.07;100.00;100248.53;5134718;27;845;-67
2023/03/02 16:04:13;;;;;;;;;;;;;;;6.08;100.00;100241.09;5134559;27;830;-68
2023/03/02 16:06:43;;;;;;;;;;;;;;;6.07;100.00;100245.00;5134527;27;815;-67
2023/03/02 16:09:10;;;;;;;;;;;;;;;6.05;100.00;100252.81;5134498;27;1902;-67
2023/03/02 16:11:36;;;;;;;;;;;;;;;6.02;100.00;100248.06;5134519;27;870;-66
2023/03/02 16:14:03;;;;;;;;;;;;;;;5.98;100.00;100242.47;5133193;27;1262;-67
2023/03/02 16:16:29;;;;;;;;;;;;;;;5.93;100.00;100238.06;5134451;27;886;-67
2023/03/02 16:18:57;;;;;;;;;;;;;;;5.89;100.00;100244.63;5132814;27;1292;-67
2023/03/02 16:21:25;;;;;;;;;;;;;;;5.85;100.00;100249.25;5134342;27;885;-67
2023/03/02 16:23:52;;;;;;;;;;;;;;;5.84;100.00;100247.63;5134198;27;858;-67
2023/03/02 16:26:19;;;;;;;;;;;;;;;5.83;100.00;100246.84;5134298;27;830;-67
2023/03/02 16:28:46;;;;;;;;;;;;;;;5.83;100.00;100249.59;5132889;27;1922;-67
2023/03/02 16:31:14;;;;;;;;;;;;;;;5.82;100.00;100247.19;5134128;27;898;-67
2023/03/02 16:33:40;;;;;;;;;;;;;;;5.80;100.00;100247.53;5134254;27;807;-66
2023/03/02 16:36:08;;;;;;;;;;;;;;;5.76;100.00;100243.97;5134067;27;945;-68
2023/03/02 16:38:35;;;;;;;;;;;;;;;5.71;100.00;100246.97;5133982;27;791;-67
2023/03/02 16:41:03;;;;;;;;;;;;;;;5.67;100.00;100244.13;5132645;27;1273;-68
2023/03/02 16:43:30;;;;;;;;;;;;;;;5.61;100.00;100239.28;5133905;27;885;-68
2023/03/02 16:45:56;;;;;;;;;;;;;;;5.53;100.00;100241.88;5132586;27;1440;-67
2023/03/02 16:48:23;;;;;;;;;;;;;;;5.49;100.00;100249.25;5134022;27;1902;-66
2023/03/02 16:50:53;;;;;;;;;;;;;;;5.46;100.00;100252.72;5133782;27;874;-68
2023/03/02 16:53:19;;;;;;;;;;;;;;;5.44;100.00;100259.69;5133712;27;823;-68
2023/03/02 16:55:47;;;;;;;;;;;;;;;5.44;100.00;100249.53;5133599;27;830;-68
2023/03/02 16:58:14;;;;;;;;;;;;;;;5.45;100.00;100259.31;5133593;27;882;-68
2023/03/02 17:00:41;;;;;;;;;;;;;;;5.42;100.00;100256.50;5133517;27;902;-68
2023/03/02 17:03:13;;;;;;;;;;;;;;;5.38;100.00;100255.66;5132112;27;1293;-70
2023/03/02 17:05:42;;;;;;;;;;;;;;;5.39;100.00;100252.53;5134016;27;807;-69
2023/03/02 17:08:13;;;;;;;;;;;;;;;5.31;100.00;100262.53;5133522;27;1906;-69
2023/03/02 17:10:40;;;;;;;;;;;;;;;5.34;100.00;100266.50;5133271;27;819;-69
2023/03/02 17:13:07;;;;;;;;;;;;;;;5.33;100.00;100264.91;5133293;27;819;-69
2023/03/02 17:15:34;;;;;;;;;;;;;;;5.37;100.00;100262.25;5133228;27;837;-69
2023/03/02 17:18:00;;;;;;;;;;;;;;;5.41;100.00;100261.19;5133018;27;1013;-69
2023/03/02 17:20:27;;;;;;;;;;;;;;;5.39;100.00;100270.94;5132995;27;1455;-68
2023/03/02 17:22:54;;;;;;;;;;;;;;;5.39;100.00;100268.19;5133171;27;819;-68
2023/03/02 17:25:21;;;;;;;;;;;;;;;5.41;100.00;100269.41;5131770;27;1157;-68
2023/03/02 17:27:47;;;;;;;;;;;;;;;5.41;100.00;100277.63;5133326;27;838;-68
2023/03/02 17:30:14;;;;;;;;;;;;;;;5.36;100.00;100269.69;5133040;27;1905;-68
2023/03/02 17:32:41;;;;;;;;;;;;;;;5.38;100.00;100269.34;5132881;27;870;-67
2023/03/02 17:35:08;;;;;;;;;;;;;;;5.38;100.00;100272.88;5132954;27;787;-68
2023/03/02 17:37:35;;;;;;;;;;;;;;;5.34;100.00;100276.69;5133080;27;803;-67
2023/03/02 17:40:02;;;;;;;;;;;;;;;5.34;100.00;100282.97;5131532;27;1197;-68
2023/03/02 17:42:29;;;;;;;;;;;;;;;5.36;100.00;100282.63;5133159;27;893;-69
2023/03/02 17:44:56;;;;;;;;;;;;;;;5.34;100.00;100274.75;5131570;27;1806;-69
2023/03/02 17:47:22;;;;;;;;;;;;;;;5.39;100.00;100284.63;5131394;27;1501;-69
2023/03/02 17:49:49;;;;;;;;;;;;;;;5.41;100.00;100287.81;5132658;27;1881;-68
2023/03/02 17:52:16;;;;;;;;;;;;;;;5.37;100.00;100292.41;5132679;27;842;-68
2023/03/02 17:54:43;;;;;;;;;;;;;;;5.35;100.00;100295.50;5132596;27;875;-68
2023/03/02 17:57:10;;;;;;;;;;;;;;;5.33;100.00;100297.81;5132793;27;815;-68
2023/03/02 17:59:37;;;;;;;;;;;;;;;5.30;100.00;100282.88;5132601;27;870;-68
2023/03/02 18:02:03;;;;;;;;;;;;;;;5.31;100.00;100279.00;5132637;27;901;-66
2023/03/02 18:04:30;;;;;;;;;;;;;;;5.31;100.00;100270.75;5132692;27;901;-67
2023/03/02 18:06:57;;;;;;;;;;;;;;;5.28;100.00;100265.97;5132638;27;885;-67
2023/03/02 18:09:24;;;;;;;;;;;;;;;5.29;100.00;100277.72;5132648;27;1944;-66
2023/03/02 18:11:50;;;;;;;;;;;;;;;5.20;100.00;100269.69;5132662;27;890;-68
2023/03/02 18:14:18;;;;;;;;;;;;;;;5.24;100.00;100267.06;5132675;27;846;-68
2023/03/02 18:16:44;;;;;;;;;;;;;;;5.21;100.00;100267.78;5131221;28;1174;-68
2023/03/02 18:19:11;;;;;;;;;;;;;;;5.23;100.00;100265.47;5132480;27;1373;-69
2023/03/02 18:21:40;;;;;;;;;;;;;;;5.17;100.00;100262.19;5131296;28;1316;-69
2023/03/02 18:24:08;;;;;;;;;;;;;;;5.16;100.00;100257.06;5132351;27;819;-70
2023/03/02 18:26:34;;;;;;;;;;;;;;;5.13;100.00;100255.81;5132393;27;878;-70
2023/03/02 18:29:01;;;;;;;;;;;;;;;5.13;100.00;100258.56;5132248;27;1914;-69
2023/03/02 18:31:27;;;;;;;;;;;;;;;5.16;100.00;100257.84;5135434;27;831;-69
2023/03/02 18:33:54;;;;;;;;;;;;;;;5.10;100.00;100254.59;5136466;27;1152;-68
2023/03/02 18:36:21;;;;;;;;;;;;;;;5.06;100.00;100255.66;5135164;27;1364;-66
2023/03/02 18:38:47;;;;;;;;;;;;;;;5.08;100.00;100258.84;5136552;27;795;-69
2023/03/02 18:41:14;;;;;;;;;;;;;;;5.01;100.00;100262.19;5136581;27;851;-67
2023/03/02 18:43:41;;;;;;;;;;;;;;;5.02;100.00;100266.53;5136890;27;752;-68
2023/03/02 18:46:16;;;;;;;;;;;;;;;5.05;100.00;100268.56;5136395;27;1255;-68
2023/03/02 18:48:43;;;;;;;;;;;;;;;5.00;100.00;100271.56;5136125;27;1948;-69
2023/03/02 18:51:09;;;;;;;;;;;;;;;5.03;100.00;100273.59;5136151;27;807;-69
2023/03/02 18:53:36;;;;;;;;;;;;;;;5.05;100.00;100276.78;5136007;27;803;-69
2023/03/02 18:56:03;;;;;;;;;;;;;;;5.07;100.00;100282.69;5136039;27;858;-69
2023/03/02 18:58:32;;;;;;;;;;;;;;;5.06;100.00;100286.59;5136077;27;815;-68
2023/03/02 19:00:59;;;;;;;;;;;;;;;5.10;100.00;100286.69;5135774;27;815;-68
2023/03/02 19:03:26;;;;;;;;;;;;;;;5.13;100.00;100285.19;5135949;27;803;-68
2023/03/02 19:05:53;;;;;;;;;;;;;;;5.18;100.00;100288.44;5135809;27;870;-69
2023/03/02 19:08:22;;;;;;;;;;;;;;;5.21;100.00;100293.22;5134399;27;1956;-67
2023/03/02 19:10:54;;;;;;;;;;;;;;;5.22;100.00;100288.53;5135767;27;943;-69
2023/03/02 19:13:20;;;;;;;;;;;;;;;5.22;100.00;100285.78;5135694;27;814;-69
2023/03/02 19:15:47;;;;;;;;;;;;;;;5.23;100.00;100287.41;5135890;27;791;-68
2023/03/02 19:18:23;;;;;;;;;;;;;;;5.25;100.00;100282.34;5135325;27;1376;-68
2023/03/02 19:20:50;;;;;;;;;;;;;;;5.22;100.00;100288.53;5135554;27;843;-69
2023/03/02 19:23:17;;;;;;;;;;;;;;;5.22;100.00;100286.59;5135667;27;791;-69
2023/03/02 19:25:44;;;;;;;;;;;;;;;5.19;100.00;100281.81;5135435;27;826;-69
2023/03/02 19:28:10;;;;;;;;;;;;;;;5.14;100.00;100276.59;5135356;27;1977;-68
2023/03/02 19:30:37;;;;;;;;;;;;;;;5.14;100.00;100271.09;5135311;27;897;-68
2023/03/02 19:33:06;;;;;;;;;;;;;;;5.11;100.00;100269.88;5135396;27;822;-68
2023/03/02 19:35:32;;;;;;;;;;;;;;;5.12;100.00;100273.41;5135218;27;849;-69
2023/03/02 19:37:58;;;;;;;;;;;;;;;5.15;100.00;100269.19;5135288;27;862;-69
2023/03/02 19:40:26;;;;;;;;;;;;;;;5.18;100.00;100273.94;5134859;27;882;-68
2023/03/02 19:42:52;;;;;;;;;;;;;;;5.17;100.00;100270.41;5134932;27;814;-68
2023/03/02 19:45:23;;;;;;;;;;;;;;;5.19;100.00;100268.13;5135131;27;795;-68
2023/03/02 19:47:50;;;;;;;;;;;;;;;5.15;100.00;100269.97;5135018;27;827;-68
2023/03/02 19:50:17;;;;;;;;;;;;;;;5.17;100.00;100267.69;5134885;27;1905;-67
2023/03/02 19:52:43;;;;;;;;;;;;;;;5.20;100.00;100275.19;5135159;27;827;-67
2023/03/02 19:55:12;;;;;;;;;;;;;;;5.21;100.00;100271.31;5135184;27;826;-67
2023/03/02 19:57:39;;;;;;;;;;;;;;;5.15;100.00;100266.44;5135170;27;882;-67
2023/03/02 20:00:08;;;;;;;;;;;;;;;5.13;100.00;100269.53;5134719;27;839;-68
2023/03/02 20:02:35;;;;;;;;;;;;;;;5.16;100.00;100268.03;5134785;27;823;-67
2023/03/02 20:05:02;;;;;;;;;;;;;;;5.11;100.00;100261.66;5134609;27;852;-68
2023/03/02 20:07:29;;;;;;;;;;;;;;;5.12;100.00;100256.97;5134657;27;815;-67
2023/03/02 20:09:56;;;;;;;;;;;;;;;5.12;100.00;100262.44;5134498;27;1886;-68
2023/03/02 20:12:22;;;;;;;;;;;;;;;5.15;100.00;100260.97;5134560;27;860;-68
2023/03/02 20:14:50;;;;;;;;;;;;;;;5.16;100.00;100260.59;5134606;27;901;-68
2023/03/02 20:17:18;;;;;;;;;;;;;;;5.17;100.00;100261.41;5134458;27;858;-67
2023/03/02 20:19:45;;;;;;;;;;;;;;;5.18;100.00;100266.50;5132782;27;1434;-68
2023/03/02 20:22:13;;;;;;;;;;;;;;;5.19;100.00;100256.38;5134306;27;827;-69
2023/03/02 20:24:39;;;;;;;;;;;;;;;5.17;100.00;100251.22;5133029;27;1145;-69
2023/03/02 20:27:06;;;;;;;;;;;;;;;5.14;100.00;100253.88;5134177;27;834;-68
2023/03/02 20:29:36;;;;;;;;;;;;;;;5.14;100.00;100259.34;5134100;27;2000;-67
2023/03/02 20:32:03;;;;;;;;;;;;;;;5.11;100.00;100258.91;5134139;27;878;-67
2023/03/02 20:34:30;;;;;;;;;;;;;;;5.14;100.00;100253.88;5134168;27;838;-68
2023/03/02 20:36:57;;;;;;;;;;;;;;;5.14;100.00;100248.41;5133979;27;874;-68
2023/03/02 20:39:25;;;;;;;;;;;;;;;5.13;100.00;100246.81;5132823;27;1433;-67
2023/03/02 20:41:52;;;;;;;;;;;;;;;5.08;100.00;100240.47;5133952;27;847;-68
2023/03/02 20:44:19;;;;;;;;;;;;;;;5.08;100.00;100237.72;5132525;27;1156;-68
2023/03/02 20:46:50;;;;;;;;;;;;;;;5.06;100.00;100231.00;5134074;27;889;-69
2023/03/02 20:49:17;;;;;;;;;;;;;;;5.04;100.00;100225.88;5133693;27;1948;-69
2023/03/02 20:51:48;;;;;;;;;;;;;;;4.97;100.00;100219.41;5132442;27;1623;-69
2023/03/02 20:54:15;;;;;;;;;;;;;;;4.97;100.00;100211.19;5133100;27;894;-69
2023/03/02 20:56:41;;;;;;;;;;;;;;;4.88;100.00;100212.16;5133995;27;874;-69
2023/03/02 20:59:08;;;;;;;;;;;;;;;4.89;100.00;100210.25;5132398;27;1231;-68
2023/03/02 21:01:35;;;;;;;;;;;;;;;4.88;100.00;100208.63;5133976;27;807;-68
2023/03/02 21:04:01;;;;;;;;;;;;;;;4.83;100.00;100206.19;5134269;27;881;-67
2023/03/02 21:06:28;;;;;;;;;;;;;;;4.86;100.00;100197.25;5134150;27;855;-68
2023/03/02 21:08:54;;;;;;;;;;;;;;;4.79;100.00;100197.06;5133332;27;1878;-69
2023/03/02 21:11:21;;;;;;;;;;;;;;;4.80;100.00;100193.19;5133450;27;902;-69
2023/03/02 21:13:48;;;;;;;;;;;;;;;4.84;100.00;100202.28;5133328;27;804;-68
2023/03/02 21:16:18;;;;;;;;;;;;;;;4.85;100.00;100192.94;5133225;27;811;-68
2023/03/02 21:18:44;;;;;;;;;;;;;;;4.85;100.00;100190.97;5131926;27;1414;-70
2023/03/02 21:21:11;;;;;;;;;;;;;;;4.86;100.00;100194.50;5132201;27;1732;-68
2023/03/02 21:23:37;;;;;;;;;;;;;;;4.84;100.00;100188.59;5133739;27;739;-67
2023/03/02 21:26:03;;;;;;;;;;;;;;;4.84;100.00;100185.84;5133041;27;893;-68
2023/03/02 21:28:30;;;;;;;;;;;;;;;4.84;100.00;100175.72;5132899;27;1971;-68
2023/03/02 21:30:56;;;;;;;;;;;;;;;4.88;100.00;100171.09;5133026;27;839;-68
2023/03/02 21:33:28;;;;;;;;;;;;;;;4.82;100.00;100177.19;5133015;27;906;-68
2023/03/02 21:35:56;;;;;;;;;;;;;;;4.79;100.00;100175.16;5132923;27;818;-69
2023/03/02 21:38:22;;;;;;;;;;;;;;;4.83;100.00;100170.56;5132887;27;839;-68
2023/03/02 21:40:48;;;;;;;;;;;;;;;4.64;100.00;100133.75;5132916;27;865;-70
2023/03/02 21:43:15;;;;;;;;;;;;;;;4.83;100.00;100165.88;5132949;27;878;-68
2023/03/02 21:45:41;;;;;;;;;;;;;;;4.87;100.00;100157.75;5133075;27;870;-68
2023/03/02 21:48:08;;;;;;;;;;;;;;;4.89;100.00;100155.47;5132941;27;1886;-68
2023/03/02 21:50:39;;;;;;;;;;;;;;;4.93;100.00;100164.56;5131647;27;1335;-65
2023/03/02 21:53:07;;;;;;;;;;;;;;;4.94;100.00;100151.66;5132741;27;819;-68
2023/03/02 21:55:33;;;;;;;;;;;;;;;4.96;100.00;100157.56;5132574;27;866;-68
2023/03/02 21:58:08;;;;;;;;;;;;;;;4.94;100.00;100149.69;5132604;27;834;-67
2023/03/02 22:00:37;;;;;;;;;;;;;;;4.94;100.00;100151.66;5132552;27;870;-68
2023/03/02 22:03:04;;;;;;;;;;;;;;;4.92;100.00;100149.25;5131285;27;1448;-68
2023/03/02 22:05:31;;;;;;;;;;;;;;;4.91;100.00;100142.22;5132363;27;881;-66
2023/03/02 22:07:58;;;;;;;;;;;;;;;4.91;100.00;100143.00;5132520;27;866;-66
2023/03/02 22:10:32;;;;;;;;;;;;;;;4.94;100.00;100143.44;5132457;27;1886;-68
2023/03/02 22:13:19;;;;;;;;;;;;;;;4.93;100.00;100136.34;5132720;27;835;-68
2023/03/02 22:15:46;;;;;;;;;;;;;;;4.93;100.00;100139.09;5118105;27;1271;-67
2023/03/02 22:18:14;;;;;;;;;;;;;;;4.90;100.00;100143.34;5132415;27;1276;-68
2023/03/02 22:20:45;;;;;;;;;;;;;;;4.87;100.00;100141.31;5133210;27;756;-68
2023/03/02 22:23:14;;;;;;;;;;;;;;;4.84;100.00;100144.75;5132300;27;839;-65
2023/03/02 22:25:40;;;;;;;;;;;;;;;4.82;100.00;100144.31;5131058;28;1185;-68
2023/03/02 22:28:26;;;;;;;;;;;;;;;4.78;100.00;100147.00;5132200;27;1914;-67
2023/03/02 22:30:57;;;;;;;;;;;;;;;4.76;100.00;100138.34;5132350;27;819;-68
2023/03/02 22:33:27;;;;;;;;;;;;;;;4.74;100.00;100140.63;5132337;27;898;-67
2023/03/02 22:35:59;;;;;;;;;;;;;;;4.74;100.00;100132.41;5132218;27;871;-69
2023/03/02 22:38:27;;;;;;;;;;;;;;;4.77;100.00;100136.38;5132201;27;838;-69
2023/03/02 22:40:54;;;;;;;;;;;;;;;4.82;100.00;100136.09;5130979;28;1583;-69
2023/03/02 22:43:28;;;;;;;;;;;;;;;4.86;100.00;100128.78;5132201;27;815;-66
2023/03/02 22:46:16;;;;;;;;;;;;;;;4.89;100.00;100133.56;5132166;27;828;-67
2023/03/02 22:48:43;;;;;;;;;;;;;;;4.91;100.00;100125.78;5132120;27;1936;-68
2023/03/02 22:51:17;;;;;;;;;;;;;;;4.93;100.00;100126.22;5130774;28;1330;-67
2023/03/02 22:53:48;;;;;;;;;;;;;;;4.91;100.00;100121.09;5132048;27;803;-67
2023/03/02 22:56:32;;;;;;;;;;;;;;;4.92;100.00;100127.34;5132008;27;831;-68
2023/03/02 22:59:17;;;;;;;;;;;;;;;4.88;100.00;100119.03;5131934;28;815;-69
2023/03/02 23:01:44;;;;;;;;;;;;;;;4.87;100.00;100114.72;5132077;27;893;-69
2023/03/02 23:04:18;;;;;;;;;;;;;;;4.87;100.00;100108.47;5131988;27;827;-67
2023/03/02 23:06:46;;;;;;;;;;;;;;;4.86;100.00;100104.13;5131983;27;869;-69
2023/03/02 23:09:15;;;;;;;;;;;;;;;4.84;100.00;100109.97;5131793;27;1929;-69
2023/03/02 23:11:43;;;;;;;;;;;;;;;4.83;100.00;100108.38;5131909;27;803;-69
2023/03/02 23:14:21;;;;;;;;;;;;;;;4.82;100.00;100108.72;5131920;27;814;-67
2023/03/02 23:16:51;;;;;;;;;;;;;;;4.81;100.00;100109.88;5133781;27;830;-68
2023/03/02 23:19:18;;;;;;;;;;;;;;;4.79;100.00;100107.50;5135363;27;1342;-69
2023/03/02 23:21:45;;;;;;;;;;;;;;;4.77;100.00;100098.84;5134291;27;913;-67
2023/03/02 23:24:11;;;;;;;;;;;;;;;4.79;100.00;100109.44;5134167;27;1305;-67